createdAt,value
2019-06-20T00:00:55.849Z,97.32
2019-06-20T00:01:55.850Z,96.41
2019-06-20T00:02:55.823Z,95.50
2019-06-20T00:03:55.814Z,94.29
2019-06-20T00:04:55.825Z,94.09
2019-06-20T00:05:55.792Z,93.89
2019-06-20T00:06:55.796Z,93.89
2019-06-20T00:07:55.771Z,90.97
2019-06-20T00:09:00.815Z,90.62
2019-06-20T00:09:55.755Z,89.51
2019-06-20T00:10:55.739Z,91.02
2019-06-20T00:11:55.738Z,91.93
2019-06-20T00:13:00.356Z,91.93
2019-06-20T00:13:56.700Z,93.44
2019-06-20T00:14:55.710Z,95.06
2019-06-20T00:15:55.687Z,95.76
2019-06-20T00:16:59.314Z,93.54
2019-06-20T00:17:55.664Z,93.65
2019-06-20T00:18:55.648Z,95.06
2019-06-20T00:20:00.675Z,95.66
2019-06-20T00:20:55.629Z,95.26
2019-06-20T00:21:55.626Z,95.66
2019-06-20T00:22:55.603Z,96.01
2019-06-20T00:23:55.602Z,95.51
2019-06-20T00:24:55.610Z,95.21
2019-06-20T00:25:55.576Z,96.22
2019-06-20T00:26:55.556Z,95.92
2019-06-20T00:27:55.551Z,93.70
2019-06-20T00:28:55.537Z,94.10
2019-06-20T00:29:55.551Z,93.10
2019-06-20T00:31:00.543Z,92.19
2019-06-20T00:31:55.531Z,91.78
2019-06-20T00:32:55.494Z,90.98
2019-06-20T00:33:55.487Z,91.04
2019-06-20T00:34:55.510Z,91.49
2019-06-20T00:35:55.462Z,92.59
2019-06-20T00:36:55.457Z,91.89
2019-06-20T00:37:55.437Z,92.49
2019-06-20T00:38:55.433Z,93.19
2019-06-20T00:39:55.423Z,94.81
2019-06-20T00:40:55.410Z,95.11
2019-06-20T00:42:00.430Z,94.81
2019-06-20T00:42:55.393Z,93.19
2019-06-20T00:43:55.378Z,93.40
2019-06-20T00:44:55.371Z,93.70
2019-06-20T00:45:55.360Z,95.21
2019-06-20T00:46:55.352Z,94.00
2019-06-20T00:47:55.332Z,92.90
2019-06-20T00:48:55.337Z,93.40
2019-06-20T00:49:55.339Z,94.20
2019-06-20T00:50:55.290Z,93.30
2019-06-20T00:51:55.280Z,93.60
2019-06-20T00:53:00.309Z,93.60
2019-06-20T00:53:55.265Z,94.81
2019-06-20T00:54:55.250Z,94.81
2019-06-20T00:55:55.280Z,93.60
2019-06-20T00:56:55.224Z,92.99
2019-06-20T00:57:55.214Z,93.70
2019-06-20T00:58:55.218Z,94.40
2019-06-20T00:59:55.214Z,94.60
2019-06-20T01:00:55.193Z,95.01
2019-06-20T01:01:55.180Z,95.11
2019-06-20T01:02:55.160Z,94.60
2019-06-20T01:04:00.175Z,94.75
2019-06-20T01:04:55.145Z,95.21
2019-06-20T01:05:55.141Z,95.46
2019-06-20T01:06:55.114Z,95.06
2019-06-20T01:07:55.108Z,94.05
2019-06-20T01:08:55.095Z,95.15
2019-06-20T01:09:55.089Z,96.12
2019-06-20T01:10:55.087Z,96.72
2019-06-20T01:11:55.078Z,96.52
2019-06-20T01:12:55.051Z,96.42
2019-06-20T01:13:55.038Z,97.03
2019-06-20T01:15:00.050Z,95.92
2019-06-20T01:15:55.048Z,94.81
2019-06-20T01:16:55.010Z,94.81
2019-06-20T01:17:54.992Z,94.51
2019-06-20T01:18:54.981Z,94.20
2019-06-20T01:19:58.146Z,94.00
2019-06-20T01:20:54.977Z,94.51
2019-06-20T01:21:54.999Z,93.90
2019-06-20T01:22:54.956Z,92.99
2019-06-20T01:23:54.927Z,93.40
2019-06-20T01:24:54.920Z,93.50
2019-06-20T01:25:59.938Z,93.50
2019-06-20T01:26:54.896Z,93.70
2019-06-20T01:27:54.883Z,92.99
2019-06-20T01:28:54.871Z,93.50
2019-06-20T01:29:54.869Z,92.90
2019-06-20T01:30:54.859Z,92.69
2019-06-20T01:31:54.839Z,92.79
2019-06-20T01:32:54.830Z,92.29
2019-06-20T01:33:54.847Z,93.70
2019-06-20T01:34:54.805Z,93.40
2019-06-20T01:35:54.818Z,92.39
2019-06-20T01:36:59.808Z,92.19
2019-06-20T01:37:54.771Z,92.29
2019-06-20T01:38:54.775Z,93.70
2019-06-20T01:39:54.762Z,92.99
2019-06-20T01:40:54.761Z,92.49
2019-06-20T01:41:54.730Z,92.83
2019-06-20T01:42:54.718Z,92.39
2019-06-20T01:43:54.709Z,93.40
2019-06-20T01:44:54.707Z,93.19
2019-06-20T01:45:54.721Z,92.59
2019-06-20T01:46:54.685Z,92.49
2019-06-20T01:47:59.683Z,92.09
2019-06-20T01:48:54.652Z,92.99
2019-06-20T01:49:54.639Z,92.39
2019-06-20T01:50:54.634Z,92.54
2019-06-20T01:51:54.661Z,92.19
2019-06-20T01:52:54.614Z,91.89
2019-06-20T01:53:54.594Z,91.89
2019-06-20T01:54:54.592Z,92.19
2019-06-20T01:55:54.576Z,92.49
2019-06-20T01:56:54.582Z,92.39
2019-06-20T01:57:54.551Z,91.78
2019-06-20T01:58:59.568Z,92.29
2019-06-20T01:59:54.529Z,91.08
2019-06-20T02:00:54.599Z,92.09
2019-06-20T02:01:54.520Z,90.88
2019-06-20T02:02:54.500Z,91.38
2019-06-20T02:03:54.492Z,91.18
2019-06-20T02:04:54.471Z,91.18
2019-06-20T02:05:54.460Z,91.69
2019-06-20T02:06:54.464Z,90.98
2019-06-20T02:07:54.438Z,92.19
2019-06-20T02:08:54.428Z,91.78
2019-06-20T02:09:59.447Z,92.09
2019-06-20T02:10:54.404Z,91.38
2019-06-20T02:11:54.407Z,90.98
2019-06-20T02:12:54.382Z,91.38
2019-06-20T02:14:06.907Z,91.89
2019-06-20T02:14:55.358Z,91.28
2019-06-20T02:15:54.375Z,90.98
2019-06-20T02:16:54.348Z,91.18
2019-06-20T02:17:54.345Z,90.98
2019-06-20T02:18:54.323Z,91.69
2019-06-20T02:19:54.308Z,91.49
2019-06-20T02:20:59.393Z,91.49
2019-06-20T02:21:54.312Z,90.88
2019-06-20T02:22:54.269Z,91.49
2019-06-20T02:23:54.267Z,91.38
2019-06-20T02:24:54.245Z,91.73
2019-06-20T02:25:54.253Z,91.33
2019-06-20T02:26:54.239Z,91.02
2019-06-20T02:27:54.214Z,91.33
2019-06-20T02:28:54.202Z,91.53
2019-06-20T02:29:54.192Z,91.63
2019-06-20T02:30:54.188Z,91.49
2019-06-20T02:31:59.211Z,91.89
2019-06-20T02:32:54.157Z,91.78
2019-06-20T02:33:54.147Z,91.63
2019-06-20T02:34:54.138Z,91.49
2019-06-20T02:35:54.136Z,91.18
2019-06-20T02:36:54.133Z,91.89
2019-06-20T02:37:54.130Z,90.92
2019-06-20T02:38:54.090Z,91.78
2019-06-20T02:39:54.081Z,91.69
2019-06-20T02:40:54.078Z,91.53
2019-06-20T02:41:54.072Z,91.93
2019-06-20T02:42:59.075Z,92.49
2019-06-20T02:43:54.037Z,91.13
2019-06-20T02:44:54.026Z,91.33
2019-06-20T02:45:54.077Z,91.93
2019-06-20T02:46:54.016Z,91.83
2019-06-20T02:47:54.002Z,91.73
2019-06-20T02:48:53.979Z,92.23
2019-06-20T02:49:53.988Z,92.43
2019-06-20T02:50:53.961Z,92.13
2019-06-20T02:51:53.987Z,91.93
2019-06-20T02:52:54.043Z,92.23
2019-06-20T02:53:58.952Z,92.43
2019-06-20T02:54:53.920Z,92.33
2019-06-20T02:55:53.909Z,92.63
2019-06-20T02:56:53.906Z,92.13
2019-06-20T02:57:53.884Z,92.43
2019-06-20T02:58:53.870Z,92.23
2019-06-20T02:59:53.865Z,92.33
2019-06-20T03:00:53.862Z,92.33
2019-06-20T03:01:53.846Z,92.43
2019-06-20T03:02:53.832Z,92.54
2019-06-20T03:03:53.819Z,91.93
2019-06-20T03:04:58.830Z,91.53
2019-06-20T03:05:53.814Z,91.73
2019-06-20T03:06:53.808Z,91.93
2019-06-20T03:07:53.775Z,91.93
2019-06-20T03:08:53.760Z,91.83
2019-06-20T03:09:53.761Z,91.89
2019-06-20T03:10:53.747Z,91.49
2019-06-20T03:11:53.740Z,91.58
2019-06-20T03:12:53.726Z,91.89
2019-06-20T03:13:53.703Z,90.98
2019-06-20T03:14:53.693Z,91.49
2019-06-20T03:15:58.713Z,91.49
2019-06-20T03:16:53.679Z,91.18
2019-06-20T03:17:53.675Z,91.08
2019-06-20T03:18:53.659Z,90.44
2019-06-20T03:19:53.647Z,90.23
2019-06-20T03:20:53.635Z,89.73
2019-06-20T03:21:53.615Z,90.03
2019-06-20T03:22:53.620Z,90.33
2019-06-20T03:23:53.623Z,89.87
2019-06-20T03:24:53.584Z,89.83
2019-06-20T03:25:53.576Z,90.44
2019-06-20T03:26:58.589Z,90.23
2019-06-20T03:27:53.567Z,90.58
2019-06-20T03:28:53.539Z,90.28
2019-06-20T03:29:53.531Z,90.48
2019-06-20T03:30:53.547Z,90.48
2019-06-20T03:31:53.554Z,90.28
2019-06-20T03:32:53.513Z,90.13
2019-06-20T03:33:53.554Z,90.23
2019-06-20T03:34:53.507Z,89.73
2019-06-20T03:35:53.459Z,89.77
2019-06-20T03:36:53.449Z,90.37
2019-06-20T03:37:58.476Z,90.33
2019-06-20T03:38:53.428Z,89.93
2019-06-20T03:39:53.426Z,90.33
2019-06-20T03:40:53.409Z,89.63
2019-06-20T03:41:53.410Z,89.53
2019-06-20T03:42:53.411Z,90.48
2019-06-20T03:43:53.379Z,89.53
2019-06-20T03:45:02.309Z,89.43
2019-06-20T03:45:54.362Z,89.63
2019-06-20T03:46:53.340Z,90.03
2019-06-20T03:47:53.341Z,90.13
2019-06-20T03:48:58.339Z,89.53
2019-06-20T03:49:53.302Z,89.23
2019-06-20T03:50:53.302Z,89.73
2019-06-20T03:51:53.283Z,89.83
2019-06-20T03:52:53.283Z,90.03
2019-06-20T03:53:53.261Z,89.77
2019-06-20T03:54:53.247Z,89.93
2019-06-20T03:55:53.258Z,89.17
2019-06-20T03:56:53.234Z,89.43
2019-06-20T03:57:53.244Z,89.63
2019-06-20T03:58:53.216Z,89.12
2019-06-20T03:59:58.233Z,89.93
2019-06-20T04:00:53.195Z,89.63
2019-06-20T04:01:53.188Z,89.93
2019-06-20T04:02:53.158Z,89.32
2019-06-20T04:03:53.159Z,89.23
2019-06-20T04:04:53.143Z,89.08
2019-06-20T04:05:53.132Z,89.23
2019-06-20T04:06:53.128Z,89.43
2019-06-20T04:07:53.122Z,89.59
2019-06-20T04:08:53.116Z,89.18
2019-06-20T04:09:53.091Z,89.32
2019-06-20T04:10:58.091Z,89.28
2019-06-20T04:11:53.059Z,88.88
2019-06-20T04:12:53.065Z,89.39
2019-06-20T04:13:53.058Z,88.78
2019-06-20T04:14:53.033Z,88.48
2019-06-20T04:15:53.014Z,88.38
2019-06-20T04:16:53.005Z,88.98
2019-06-20T04:17:52.995Z,88.58
2019-06-20T04:18:53.015Z,88.48
2019-06-20T04:19:52.985Z,88.98
2019-06-20T04:20:52.972Z,87.98
2019-06-20T04:21:57.970Z,87.98
2019-06-20T04:22:52.947Z,88.43
2019-06-20T04:23:52.966Z,87.83
2019-06-20T04:24:52.927Z,87.43
2019-06-20T04:25:52.925Z,88.13
2019-06-20T04:26:52.890Z,88.34
2019-06-20T04:27:52.900Z,87.63
2019-06-20T04:28:52.884Z,87.83
2019-06-20T04:29:52.860Z,86.97
2019-06-20T04:30:52.863Z,88.23
2019-06-20T04:31:52.838Z,87.93
2019-06-20T04:32:57.847Z,87.73
2019-06-20T04:33:52.823Z,88.34
2019-06-20T04:34:52.800Z,86.93
2019-06-20T04:35:52.802Z,86.83
2019-06-20T04:36:52.802Z,86.88
2019-06-20T04:37:52.769Z,86.63
2019-06-20T04:38:52.765Z,86.48
2019-06-20T04:39:52.746Z,87.29
2019-06-20T04:40:52.732Z,86.38
2019-06-20T04:41:52.733Z,85.98
2019-06-20T04:42:52.723Z,85.78
2019-06-20T04:43:57.746Z,85.68
2019-06-20T04:44:52.691Z,85.68
2019-06-20T04:45:52.677Z,86.08
2019-06-20T04:46:52.672Z,85.84
2019-06-20T04:47:52.657Z,85.74
2019-06-20T04:48:52.677Z,86.04
2019-06-20T04:49:52.638Z,86.04
2019-06-20T04:50:52.623Z,85.94
2019-06-20T04:51:52.612Z,85.03
2019-06-20T04:52:52.599Z,85.80
2019-06-20T04:53:52.610Z,85.10
2019-06-20T04:54:57.601Z,84.80
2019-06-20T04:55:52.572Z,84.83
2019-06-20T04:56:52.554Z,84.99
2019-06-20T04:57:52.546Z,84.19
2019-06-20T04:58:52.543Z,84.19
2019-06-20T04:59:52.553Z,84.39
2019-06-20T05:00:52.514Z,84.25
2019-06-20T05:01:52.509Z,84.29
2019-06-20T05:02:52.499Z,83.55
2019-06-20T05:03:52.485Z,84.35
2019-06-20T05:04:52.496Z,83.75
2019-06-20T05:05:57.481Z,83.75
2019-06-20T05:06:52.443Z,84.05
2019-06-20T05:07:52.442Z,83.15
2019-06-20T05:08:52.446Z,82.75
2019-06-20T05:09:52.435Z,83.04
2019-06-20T05:10:52.413Z,82.95
2019-06-20T05:11:52.391Z,83.85
2019-06-20T05:12:55.853Z,83.75
2019-06-20T05:13:52.399Z,82.60
2019-06-20T05:14:52.545Z,82.81
2019-06-20T05:15:53.411Z,82.40
2019-06-20T05:16:57.366Z,82.40
2019-06-20T05:17:52.354Z,83.01
2019-06-20T05:18:52.313Z,82.46
2019-06-20T05:19:52.319Z,82.26
2019-06-20T05:20:52.299Z,82.76
2019-06-20T05:21:52.299Z,82.57
2019-06-20T05:22:52.266Z,82.46
2019-06-20T05:23:52.255Z,82.57
2019-06-20T05:24:52.262Z,81.56
2019-06-20T05:25:52.259Z,81.26
2019-06-20T05:26:52.233Z,81.26
2019-06-20T05:27:57.261Z,81.26
2019-06-20T05:28:52.239Z,81.67
2019-06-20T05:29:52.214Z,81.46
2019-06-20T05:30:52.180Z,81.16
2019-06-20T05:31:52.173Z,80.76
2019-06-20T05:32:52.305Z,81.46
2019-06-20T05:33:52.262Z,81.52
2019-06-20T05:34:52.151Z,81.42
2019-06-20T05:35:52.141Z,81.23
2019-06-20T05:36:52.117Z,81.12
2019-06-20T05:37:52.118Z,80.92
2019-06-20T05:38:57.140Z,80.72
2019-06-20T05:39:52.095Z,80.82
2019-06-20T05:40:52.086Z,80.32
2019-06-20T05:41:52.056Z,80.12
2019-06-20T05:42:52.308Z,80.08
2019-06-20T05:43:52.058Z,79.38
2019-06-20T05:44:52.044Z,79.28
2019-06-20T05:46:08.022Z,79.48
2019-06-20T05:47:08.529Z,79.38
2019-06-20T05:47:53.006Z,79.18
2019-06-20T05:48:51.996Z,78.84
2019-06-20T05:49:57.002Z,78.34
2019-06-20T05:50:51.961Z,78.10
2019-06-20T05:51:51.957Z,77.40
2019-06-20T05:52:52.918Z,77.91
2019-06-20T05:53:51.925Z,77.26
2019-06-20T05:54:51.927Z,77.06
2019-06-20T05:55:51.903Z,77.80
2019-06-20T05:56:51.911Z,77.40
2019-06-20T05:57:51.888Z,77.60
2019-06-20T05:58:51.937Z,77.91
2019-06-20T05:59:51.878Z,79.00
2019-06-20T06:00:56.929Z,78.91
2019-06-20T06:01:51.841Z,78.50
2019-06-20T06:02:51.835Z,78.10
2019-06-20T06:03:51.833Z,78.80
2019-06-20T06:04:51.805Z,78.41
2019-06-20T06:05:51.825Z,79.00
2019-06-20T06:06:51.806Z,77.60
2019-06-20T06:07:51.790Z,77.47
2019-06-20T06:08:51.913Z,77.40
2019-06-20T06:09:51.769Z,77.30
2019-06-20T06:10:51.754Z,77.30
2019-06-20T06:11:56.762Z,77.20
2019-06-20T06:12:51.781Z,77.60
2019-06-20T06:13:51.708Z,76.87
2019-06-20T06:14:51.696Z,77.06
2019-06-20T06:15:51.704Z,77.36
2019-06-20T06:16:51.701Z,76.87
2019-06-20T06:17:51.680Z,77.36
2019-06-20T06:18:51.654Z,77.13
2019-06-20T06:19:51.652Z,77.67
2019-06-20T06:20:51.663Z,77.76
2019-06-20T06:21:51.619Z,77.93
2019-06-20T06:22:56.633Z,77.67
2019-06-20T06:23:51.636Z,76.83
2019-06-20T06:24:51.596Z,77.17
2019-06-20T06:25:51.587Z,76.43
2019-06-20T06:26:51.576Z,75.43
2019-06-20T06:27:51.563Z,75.13
2019-06-20T06:28:51.550Z,75.23
2019-06-20T06:29:51.535Z,74.93
2019-06-20T06:30:51.577Z,74.63
2019-06-20T06:31:51.520Z,74.79
2019-06-20T06:32:51.516Z,75.33
2019-06-20T06:33:56.532Z,75.49
2019-06-20T06:34:51.487Z,75.09
2019-06-20T06:35:51.495Z,75.13
2019-06-20T06:36:51.474Z,76.09
2019-06-20T06:37:51.578Z,75.79
2019-06-20T06:38:51.445Z,75.29
2019-06-20T06:39:51.456Z,75.29
2019-06-20T06:40:51.434Z,75.59
2019-06-20T06:41:51.430Z,75.49
2019-06-20T06:42:51.409Z,75.05
2019-06-20T06:43:51.418Z,75.59
2019-06-20T06:44:56.387Z,75.16
2019-06-20T06:45:51.365Z,75.16
2019-06-20T06:46:54.357Z,75.26
2019-06-20T06:47:51.329Z,75.56
2019-06-20T06:48:51.328Z,75.35
2019-06-20T06:49:51.331Z,75.26
2019-06-20T06:50:51.329Z,74.26
2019-06-20T06:51:51.289Z,74.76
2019-06-20T06:52:51.282Z,73.69
2019-06-20T06:53:51.357Z,73.96
2019-06-20T06:54:51.263Z,73.46
2019-06-20T06:55:56.301Z,73.56
2019-06-20T06:56:51.232Z,73.25
2019-06-20T06:57:51.222Z,73.66
2019-06-20T06:58:51.233Z,74.19
2019-06-20T06:59:51.205Z,73.66
2019-06-20T07:00:51.214Z,72.56
2019-06-20T07:01:51.173Z,72.69
2019-06-20T07:02:51.161Z,73.09
2019-06-20T07:03:52.027Z,73.59
2019-06-20T07:04:51.151Z,73.79
2019-06-20T07:05:51.143Z,74.89
2019-06-20T07:06:56.143Z,74.89
2019-06-20T07:07:51.126Z,74.03
2019-06-20T07:08:51.115Z,72.99
2019-06-20T07:09:51.104Z,73.39
2019-06-20T07:10:51.126Z,73.39
2019-06-20T07:11:51.080Z,74.29
2019-06-20T07:12:51.066Z,73.89
2019-06-20T07:13:51.044Z,74.39
2019-06-20T07:14:51.029Z,73.49
2019-06-20T07:15:51.019Z,73.69
2019-06-20T07:17:00.132Z,73.72
2019-06-20T07:17:57.015Z,73.43
2019-06-20T07:18:51.023Z,73.43
2019-06-20T07:19:51.009Z,73.33
2019-06-20T07:20:50.958Z,73.43
2019-06-20T07:21:50.977Z,73.53
2019-06-20T07:22:50.940Z,73.93
2019-06-20T07:23:50.941Z,74.03
2019-06-20T07:24:50.924Z,74.22
2019-06-20T07:25:50.940Z,74.13
2019-06-20T07:26:50.932Z,74.33
2019-06-20T07:27:50.900Z,74.19
2019-06-20T07:28:55.893Z,74.03
2019-06-20T07:29:50.865Z,73.59
2019-06-20T07:30:50.905Z,73.29
2019-06-20T07:31:50.882Z,72.76
2019-06-20T07:32:50.831Z,72.76
2019-06-20T07:33:50.814Z,72.76
2019-06-20T07:34:50.826Z,72.76
2019-06-20T07:35:50.825Z,71.86
2019-06-20T07:36:50.805Z,71.56
2019-06-20T07:37:51.097Z,72.26
2019-06-20T07:38:50.773Z,72.45
2019-06-20T07:39:55.766Z,71.33
2019-06-20T07:40:50.742Z,70.96
2019-06-20T07:41:50.750Z,71.16
2019-06-20T07:42:50.774Z,71.46
2019-06-20T07:43:50.728Z,71.33
2019-06-20T07:44:50.692Z,71.33
2019-06-20T07:46:02.188Z,71.03
2019-06-20T07:46:51.703Z,70.92
2019-06-20T07:47:50.711Z,70.23
2019-06-20T07:48:50.724Z,71.42
2019-06-20T07:49:50.637Z,71.12
2019-06-20T07:50:55.650Z,70.92
2019-06-20T07:51:50.631Z,71.03
2019-06-20T07:53:01.396Z,71.19
2019-06-20T07:53:51.607Z,70.62
2019-06-20T07:54:50.642Z,70.92
2019-06-20T07:55:50.581Z,70.12
2019-06-20T07:56:50.571Z,70.32
2019-06-20T07:57:50.545Z,70.32
2019-06-20T07:58:50.531Z,70.79
2019-06-20T07:59:50.525Z,71.22
2019-06-20T08:00:50.520Z,70.99
2019-06-20T08:01:55.530Z,71.19
2019-06-20T08:02:50.498Z,69.99
2019-06-20T08:03:50.486Z,70.09
2019-06-20T08:04:50.470Z,69.16
2019-06-20T08:05:50.452Z,68.56
2019-06-20T08:06:50.475Z,68.53
2019-06-20T08:07:50.442Z,68.13
2019-06-20T08:08:50.428Z,68.30
2019-06-20T08:09:50.428Z,67.80
2019-06-20T08:10:50.398Z,66.60
2019-06-20T08:11:50.399Z,67.53
2019-06-20T08:12:55.399Z,67.20
2019-06-20T08:13:50.362Z,64.87
2019-06-20T08:14:50.354Z,64.58
2019-06-20T08:15:50.352Z,64.48
2019-06-20T08:16:50.341Z,65.87
2019-06-20T08:17:50.325Z,65.57
2019-06-20T08:18:50.333Z,65.94
2019-06-20T08:19:50.314Z,65.74
2019-06-20T08:20:50.287Z,64.04
2019-06-20T08:21:50.289Z,64.64
2019-06-20T08:22:50.263Z,64.54
2019-06-20T08:23:55.293Z,65.11
2019-06-20T08:24:50.249Z,64.31
2019-06-20T08:25:50.237Z,64.81
2019-06-20T08:26:50.250Z,63.69
2019-06-20T08:27:50.247Z,63.49
2019-06-20T08:29:04.572Z,63.69
2019-06-20T08:29:51.230Z,63.49
2019-06-20T08:30:50.212Z,63.89
2019-06-20T08:31:50.180Z,62.99
2019-06-20T08:32:50.166Z,63.66
2019-06-20T08:33:50.169Z,63.69
2019-06-20T08:34:57.453Z,63.09
2019-06-20T08:35:50.133Z,62.29
2019-06-20T08:36:50.140Z,62.56
2019-06-20T08:37:50.150Z,62.04
2019-06-20T08:38:50.094Z,62.34
2019-06-20T08:39:50.076Z,61.01
2019-06-20T08:40:50.078Z,61.94
2019-06-20T08:41:50.090Z,62.13
2019-06-20T08:42:50.044Z,62.34
2019-06-20T08:43:50.032Z,62.10
2019-06-20T08:44:50.031Z,61.71
2019-06-20T08:45:56.229Z,62.30
2019-06-20T08:46:50.007Z,61.31
2019-06-20T08:47:50.020Z,61.21
2019-06-20T08:48:49.989Z,61.31
2019-06-20T08:49:49.973Z,62.43
2019-06-20T08:50:50.028Z,61.74
2019-06-20T08:51:49.954Z,61.34
2019-06-20T08:52:49.963Z,61.83
2019-06-20T08:53:49.924Z,61.51
2019-06-20T08:54:49.922Z,61.21
2019-06-20T08:55:49.905Z,61.01
2019-06-20T08:56:56.119Z,60.91
2019-06-20T08:57:49.897Z,61.61
2019-06-20T08:58:49.881Z,62.40
2019-06-20T08:59:49.861Z,61.51
2019-06-20T09:00:49.897Z,61.80
2019-06-20T09:01:49.853Z,62.50
2019-06-20T09:02:49.921Z,61.94
2019-06-20T09:03:49.830Z,61.64
2019-06-20T09:04:49.827Z,61.54
2019-06-20T09:05:49.795Z,61.64
2019-06-20T09:06:50.223Z,61.94
2019-06-20T09:07:56.489Z,62.07
2019-06-20T09:08:49.771Z,61.87
2019-06-20T09:09:49.751Z,62.37
2019-06-20T09:10:49.766Z,62.56
2019-06-20T09:11:49.744Z,61.96
2019-06-20T09:12:49.772Z,62.76
2019-06-20T09:13:49.726Z,61.07
2019-06-20T09:14:49.718Z,61.37
2019-06-20T09:15:49.701Z,61.44
2019-06-20T09:16:49.694Z,60.71
2019-06-20T09:17:49.702Z,61.01
2019-06-20T09:18:55.343Z,59.92
2019-06-20T09:19:49.654Z,59.22
2019-06-20T09:20:49.639Z,58.62
2019-06-20T09:21:49.632Z,59.69
2019-06-20T09:22:49.645Z,58.73
2019-06-20T09:23:49.608Z,59.72
2019-06-20T09:24:49.597Z,58.92
2019-06-20T09:25:50.944Z,59.30
2019-06-20T09:26:51.163Z,58.83
2019-06-20T09:27:49.608Z,59.42
2019-06-20T09:28:51.045Z,59.32
2019-06-20T09:29:54.568Z,59.12
2019-06-20T09:30:50.661Z,58.73
2019-06-20T09:31:49.514Z,59.72
2019-06-20T09:32:49.522Z,60.14
2019-06-20T09:33:49.500Z,59.75
2019-06-20T09:34:51.346Z,59.62
2019-06-20T09:35:49.471Z,59.12
2019-06-20T09:36:52.013Z,59.32
2019-06-20T09:37:50.859Z,59.85
2019-06-20T09:38:50.624Z,59.42
2019-06-20T09:39:51.551Z,58.80
2019-06-20T09:40:54.878Z,57.95
2019-06-20T09:41:51.072Z,57.00
2019-06-20T09:42:51.139Z,55.76
2019-06-20T09:43:50.072Z,54.42
2019-06-20T09:44:49.887Z,54.71
2019-06-20T09:45:49.543Z,53.53
2019-06-20T09:46:49.816Z,54.94
2019-06-20T09:47:51.777Z,55.36
2019-06-20T09:48:50.652Z,54.47
2019-06-20T09:49:52.388Z,54.17
2019-06-20T09:50:50.819Z,53.78
2019-06-20T09:51:54.340Z,54.00
2019-06-20T09:52:51.325Z,55.32
2019-06-20T09:53:49.912Z,56.01
2019-06-20T09:54:50.155Z,57.42
2019-06-20T09:55:50.039Z,56.04
2019-06-20T09:56:52.153Z,57.35
2019-06-20T09:57:50.795Z,57.75
2019-06-20T09:58:49.608Z,57.65
2019-06-20T10:00:03.251Z,58.17
2019-06-20T10:00:50.866Z,58.97
2019-06-20T10:01:51.293Z,57.90
2019-06-20T10:02:55.765Z,58.70
2019-06-20T10:03:50.442Z,58.53
2019-06-20T10:04:49.520Z,60.42
2019-06-20T10:05:50.641Z,62.10
2019-06-20T10:06:50.177Z,63.03
2019-06-20T10:07:50.307Z,65.52
2019-06-20T10:08:50.061Z,65.91
2019-06-20T10:09:49.915Z,68.53
2019-06-20T10:10:50.638Z,70.72
2019-06-20T10:11:49.720Z,72.48
2019-06-20T10:12:49.633Z,75.31
2019-06-20T10:13:54.320Z,77.53
2019-06-20T10:14:49.553Z,77.63
2019-06-20T10:15:49.435Z,79.06
2019-06-20T10:16:50.961Z,79.30
2019-06-20T10:17:50.069Z,79.64
2019-06-20T10:18:50.078Z,79.78
2019-06-20T10:19:49.887Z,81.07
2019-06-20T10:20:48.982Z,81.12
2019-06-20T10:21:49.601Z,81.39
2019-06-20T10:22:48.954Z,83.49
2019-06-20T10:23:49.693Z,83.89
2019-06-20T10:24:53.957Z,84.49
2019-06-20T10:25:49.319Z,85.53
2019-06-20T10:26:49.590Z,85.13
2019-06-20T10:27:49.707Z,85.47
2019-06-20T10:28:49.178Z,87.37
2019-06-20T10:29:49.000Z,87.57
2019-06-20T10:30:48.866Z,87.98
2019-06-20T10:31:49.051Z,88.18
2019-06-20T10:32:48.847Z,85.68
2019-06-20T10:33:48.842Z,86.37
2019-06-20T10:34:48.834Z,86.61
2019-06-20T10:35:53.846Z,88.07
2019-06-20T10:36:50.010Z,87.57
2019-06-20T10:37:50.246Z,86.87
2019-06-20T10:38:50.251Z,87.73
2019-06-20T10:39:49.956Z,88.33
2019-06-20T10:40:49.820Z,88.13
2019-06-20T10:41:50.182Z,87.99
2019-06-20T10:42:50.139Z,86.99
2019-06-20T10:43:49.557Z,85.49
2019-06-20T10:44:49.706Z,85.45
2019-06-20T10:45:49.453Z,85.15
2019-06-20T10:46:53.722Z,86.81
2019-06-20T10:47:48.975Z,87.75
2019-06-20T10:48:49.999Z,86.01
2019-06-20T10:49:50.387Z,83.65
2019-06-20T10:50:49.811Z,84.55
2019-06-20T10:51:49.629Z,83.65
2019-06-20T10:52:50.008Z,83.31
2019-06-20T10:53:49.212Z,81.85
2019-06-20T10:54:49.305Z,81.56
2019-06-20T10:55:49.056Z,80.95
2019-06-20T10:56:48.855Z,80.82
2019-06-20T10:57:53.594Z,81.71
2019-06-20T10:58:48.558Z,82.21
2019-06-20T10:59:48.559Z,80.88
2019-06-20T11:00:48.537Z,80.88
2019-06-20T11:01:48.563Z,79.74
2019-06-20T11:02:49.124Z,79.94
2019-06-20T11:03:49.910Z,79.24
2019-06-20T11:04:49.745Z,77.44
2019-06-20T11:05:49.799Z,77.64
2019-06-20T11:06:49.658Z,79.04
2019-06-20T11:07:49.922Z,77.84
2019-06-20T11:08:53.479Z,79.64
2019-06-20T11:09:49.471Z,80.14
2019-06-20T11:10:49.286Z,77.44
2019-06-20T11:11:49.060Z,76.25
2019-06-20T11:12:54.865Z,75.65
2019-06-20T11:13:49.401Z,77.04
2019-06-20T11:14:48.462Z,77.40
2019-06-20T11:15:48.390Z,78.50
2019-06-20T11:16:49.306Z,76.65
2019-06-20T11:17:48.534Z,77.55
2019-06-20T11:18:48.782Z,78.14
2019-06-20T11:19:53.369Z,79.24
2019-06-20T11:20:48.761Z,76.25
2019-06-20T11:21:48.312Z,76.15
2019-06-20T11:22:48.300Z,76.25
2019-06-20T11:23:48.286Z,77.51
2019-06-20T11:24:48.322Z,78.11
2019-06-20T11:25:48.376Z,78.30
2019-06-20T11:26:48.278Z,75.61
2019-06-20T11:27:48.254Z,75.51
2019-06-20T11:28:48.746Z,77.07
2019-06-20T11:29:48.223Z,75.57
2019-06-20T11:30:59.906Z,73.88
2019-06-20T11:31:49.628Z,72.49
2019-06-20T11:32:48.829Z,73.28
2019-06-20T11:33:48.459Z,72.95
2019-06-20T11:34:49.357Z,72.45
2019-06-20T11:35:48.180Z,72.15
2019-06-20T11:36:48.148Z,72.41
2019-06-20T11:37:48.137Z,71.45
2019-06-20T11:38:49.174Z,70.92
2019-06-20T11:39:51.139Z,69.20
2019-06-20T11:40:48.226Z,68.04
2019-06-20T11:41:53.121Z,67.21
2019-06-20T11:42:48.079Z,65.62
2019-06-20T11:43:48.072Z,63.87
2019-06-20T11:44:48.080Z,61.83
2019-06-20T11:45:48.064Z,61.50
2019-06-20T11:46:48.042Z,60.68
2019-06-20T11:47:48.034Z,59.92
2019-06-20T11:48:48.034Z,59.39
2019-06-20T11:49:48.001Z,59.69
2019-06-20T11:50:48.064Z,58.40
2019-06-20T11:51:47.987Z,58.05
2019-06-20T11:52:53.000Z,58.32
2019-06-20T11:53:47.995Z,58.37
2019-06-20T11:54:47.977Z,60.31
2019-06-20T11:55:47.949Z,60.41
2019-06-20T11:56:47.939Z,60.38
2019-06-20T11:57:47.945Z,59.99
2019-06-20T11:58:47.906Z,60.97
2019-06-20T11:59:47.907Z,59.22
2019-06-20T12:01:02.576Z,60.02
2019-06-20T12:01:49.114Z,59.05
2019-06-20T12:02:48.309Z,61.49
2019-06-20T12:03:48.959Z,62.29
2019-06-20T12:04:48.915Z,61.82
2019-06-20T12:05:52.868Z,61.55
2019-06-20T12:06:49.266Z,61.78
2019-06-20T12:07:49.574Z,62.77
2019-06-20T12:08:48.987Z,62.78
2019-06-20T12:09:49.148Z,61.63
2019-06-20T12:10:47.809Z,59.79
2019-06-20T12:11:48.861Z,58.57
2019-06-20T12:12:49.181Z,58.54
2019-06-20T12:13:48.550Z,59.04
2019-06-20T12:14:48.614Z,58.94
2019-06-20T12:15:48.997Z,58.87
2019-06-20T12:16:52.735Z,57.21
2019-06-20T12:17:49.113Z,58.83
2019-06-20T12:18:47.713Z,59.75
2019-06-20T12:19:48.762Z,60.27
2019-06-20T12:20:48.782Z,60.07
2019-06-20T12:21:49.017Z,60.67
2019-06-20T12:22:50.452Z,61.19
2019-06-20T12:23:48.996Z,60.60
2019-06-20T12:24:48.882Z,60.60
2019-06-20T12:25:48.759Z,62.21
2019-06-20T12:26:48.673Z,61.94
2019-06-20T12:27:47.782Z,61.85
2019-06-20T12:28:48.673Z,62.05
2019-06-20T12:29:52.599Z,62.51
2019-06-20T12:30:48.348Z,62.51
2019-06-20T12:31:48.478Z,61.52
2019-06-20T12:32:47.569Z,61.82
2019-06-20T12:33:47.534Z,62.12
2019-06-20T12:34:48.946Z,63.83
2019-06-20T12:35:48.658Z,64.23
2019-06-20T12:36:48.571Z,62.07
2019-06-20T12:37:47.947Z,62.18
2019-06-20T12:38:48.375Z,61.78
2019-06-20T12:39:48.666Z,62.87
2019-06-20T12:40:52.478Z,63.76
2019-06-20T12:41:47.616Z,64.26
2019-06-20T12:42:47.456Z,64.26
2019-06-20T12:43:48.307Z,63.60
2019-06-20T12:44:47.438Z,64.39
2019-06-20T12:45:47.500Z,63.92
2019-06-20T12:46:47.396Z,64.52
2019-06-20T12:47:47.402Z,65.72
2019-06-20T12:48:47.386Z,64.82
2019-06-20T12:49:47.375Z,65.42
2019-06-20T12:50:47.641Z,65.35
2019-06-20T12:51:52.400Z,65.75
2019-06-20T12:52:47.751Z,66.14